ケープタウン の空港の天気 - METARとTAF

ケープタウン国際空港 ( FACT / CPT ) - 南アフリカ ケープタウン
飛行場実況気象(Metar)
観測時間12/10 07:00 SAST (12/10 05:00 UTC)
風向・風速西南西 2m/s
視程10km以上
天気現象
なし
気温18℃
湿度73%
気圧1018hPa
METARFACT 100500Z 25004KT 220V310 CAVOK 18/13 Q1018 NOSIG
過去の天気等 Google飛行場航空写真 Wunderground天気予報

過去48時間のMETAR

飛行場予報(TAF)
発表時間: 12/10 06:00 SAST (12/10 04:00 UTC)
予報対象時間: 10日8時 SAST ~ 11日14時 SAST
風向・風速南南西 4m/s
視程10km以上
なし
TAF FACT 100400Z 1006/1112 20008KT CAVOK TX28/1012Z TN15/1104Z